Terminal Aerodrome Forecast
Issued by NWS

Home | Current Version | Previous Version | Text Only | Print | Product List | Glossary On
Versions: 1 2 3 4 5 6 7 8 9 10 11 12 13 14 15 16 17 18 19 20 21 22 23 24 25 26 27 28 29 30 31 32 33 34
000
FTUS41 KBUF 191700
TAFJHW
TAF
KJHW 191734Z 1918/2018 VRB04KT P6SM SKC
     FM200100 17008KT P6SM FEW250
     FM200500 18013KT P6SM SCT025
     FM200800 18013KT P6SM BKN025
     FM201100 19012KT P6SM BKN015
     FM201600 20016G23KT P6SM BKN050
      AMD LTD TO CLD VIS AND WIND=

USA.gov is the U.S. government's official web portal to all federal, state and local government web resources and services.